createdAt,value
2023-04-07T00:01:01.461Z,7.00
2023-04-07T00:02:03.263Z,5.00
2023-04-07T00:03:07.301Z,6.00
2023-04-07T00:04:09.417Z,7.00
2023-04-07T00:05:13.446Z,6.25
2023-04-07T00:06:15.071Z,6.00
2023-04-07T00:07:17.699Z,6.75
2023-04-07T00:08:19.315Z,6.00
2023-04-07T00:09:21.900Z,7.00
2023-04-07T00:10:23.677Z,6.00
2023-04-07T00:11:26.296Z,6.00
2023-04-07T00:12:27.961Z,6.00
2023-04-07T00:13:30.879Z,6.00
2023-04-07T00:14:32.552Z,7.00
2023-04-07T00:15:35.247Z,8.00
2023-04-07T00:16:36.873Z,7.00
2023-04-07T00:17:39.648Z,7.00
2023-04-07T00:18:41.301Z,5.50
2023-04-07T00:19:43.922Z,6.50
2023-04-07T00:20:46.881Z,7.00
2023-04-07T00:21:49.434Z,6.00
2023-04-07T00:22:51.072Z,7.00
2023-04-07T00:23:53.916Z,6.75
2023-04-07T00:24:55.849Z,6.00
2023-04-07T00:25:58.413Z,6.75
2023-04-07T00:27:00.899Z,6.25
2023-04-07T00:28:03.571Z,6.75
2023-04-07T00:29:05.282Z,6.00
2023-04-07T00:30:08.771Z,6.75
2023-04-07T00:31:10.434Z,6.00
2023-04-07T00:32:13.085Z,7.00
2023-04-07T00:33:14.802Z,6.50
2023-04-07T00:34:17.397Z,6.00
2023-04-07T00:35:19.193Z,6.00
2023-04-07T00:36:23.515Z,6.00
2023-04-07T00:37:25.586Z,6.00
2023-04-07T00:38:28.275Z,6.25
2023-04-07T00:39:30.319Z,6.00
2023-04-07T00:40:32.906Z,6.00
2023-04-07T00:41:34.557Z,5.75
2023-04-07T00:42:37.113Z,6.00
2023-04-07T00:43:38.745Z,6.00
2023-04-07T00:44:41.406Z,7.00
2023-04-07T00:45:42.999Z,6.00
2023-04-07T00:46:45.703Z,6.50
2023-04-07T00:47:47.534Z,6.00
2023-04-07T00:48:50.119Z,6.75
2023-04-07T00:49:51.720Z,6.50
2023-04-07T00:50:54.294Z,6.75
2023-04-07T00:51:57.510Z,6.00
2023-04-07T00:53:00.719Z,8.50
2023-04-07T00:54:02.823Z,7.00
2023-04-07T00:55:06.032Z,5.50
2023-04-07T00:56:08.053Z,4.00
2023-04-07T00:57:10.866Z,6.00
2023-04-07T00:58:12.496Z,6.00
2023-04-07T00:59:15.312Z,4.00
2023-04-07T01:00:17.444Z,6.50
2023-04-07T01:01:22.975Z,6.50
2023-04-07T01:02:28.523Z,7.00
2023-04-07T01:03:32.693Z,6.00
2023-04-07T01:04:41.724Z,7.00
2023-04-07T01:05:47.787Z,6.00
2023-04-07T01:06:50.952Z,6.75
2023-04-07T01:07:59.119Z,6.25
2023-04-07T01:09:03.334Z,6.50
2023-04-07T01:10:07.938Z,6.50
2023-04-07T01:11:13.302Z,7.00
2023-04-07T01:12:29.308Z,6.00
2023-04-07T01:13:31.862Z,6.00
2023-04-07T01:14:38.466Z,4.50
2023-04-07T01:15:40.101Z,5.00
2023-04-07T01:16:44.268Z,6.00
2023-04-07T01:17:46.663Z,6.00
2023-04-07T01:18:49.362Z,7.00
2023-04-07T01:19:53.328Z,6.75
2023-04-07T01:20:57.548Z,6.00
2023-04-07T01:21:59.234Z,9.25
2023-04-07T01:23:07.911Z,7.00
2023-04-07T01:24:29.985Z,6.00
2023-04-07T01:25:51.071Z,6.00
2023-04-07T01:26:52.735Z,6.50
2023-04-07T01:28:01.955Z,6.00
2023-04-07T01:29:34.644Z,6.25
2023-04-07T01:30:39.078Z,6.00
2023-04-07T01:31:41.426Z,6.00
2023-04-07T01:32:44.897Z,6.50
2023-04-07T01:33:46.593Z,7.00
2023-04-07T01:34:49.473Z,6.75
2023-04-07T01:35:51.262Z,6.00
2023-04-07T01:36:54.198Z,5.50
2023-04-07T01:37:56.089Z,7.00
2023-04-07T01:38:58.792Z,6.00
2023-04-07T01:40:00.440Z,7.00
2023-04-07T01:41:03.073Z,7.00
2023-04-07T01:42:04.790Z,6.00
2023-04-07T01:43:07.443Z,6.00
2023-04-07T01:44:09.117Z,5.50
2023-04-07T01:45:13.131Z,6.00
2023-04-07T01:46:14.813Z,6.00
2023-04-07T01:47:17.495Z,7.00
2023-04-07T01:48:19.156Z,6.50
2023-04-07T01:49:21.999Z,6.00
2023-04-07T01:50:23.876Z,6.00
2023-04-07T01:51:27.412Z,6.75
2023-04-07T01:52:29.185Z,6.00
2023-04-07T01:53:31.894Z,6.00
2023-04-07T01:54:33.549Z,7.00
2023-04-07T01:55:36.364Z,6.00
2023-04-07T01:56:38.041Z,7.00
2023-04-07T01:57:40.698Z,7.00
2023-04-07T01:58:42.394Z,5.50
2023-04-07T01:59:45.283Z,6.00
2023-04-07T02:00:48.421Z,4.00
2023-04-07T02:01:51.476Z,4.00
2023-04-07T02:02:55.873Z,6.75
2023-04-07T02:04:04.256Z,6.00
2023-04-07T02:05:07.501Z,7.00
2023-04-07T02:06:10.146Z,6.00
2023-04-07T02:07:15.718Z,6.75
2023-04-07T02:08:19.048Z,6.00
2023-04-07T02:09:20.959Z,6.00
2023-04-07T02:10:24.914Z,7.00
2023-04-07T02:11:27.184Z,6.50
2023-04-07T02:12:30.073Z,5.00
2023-04-07T02:13:32.093Z,6.00
2023-04-07T02:14:34.722Z,6.00
2023-04-07T02:15:36.739Z,6.00
2023-04-07T02:16:40.955Z,6.00
2023-04-07T02:17:44.760Z,8.50
2023-04-07T02:18:47.880Z,7.00
2023-04-07T02:19:49.526Z,6.50
2023-04-07T02:20:52.115Z,6.25
2023-04-07T02:21:53.765Z,5.50
2023-04-07T02:22:56.448Z,5.50
2023-04-07T02:24:01.184Z,6.00
2023-04-07T02:25:03.797Z,6.00
2023-04-07T02:26:05.568Z,5.00
2023-04-07T02:27:08.194Z,5.00
2023-04-07T02:28:09.898Z,6.00
2023-04-07T02:29:12.594Z,5.50
2023-04-07T02:30:14.757Z,7.00
2023-04-07T02:31:17.403Z,6.25
2023-04-07T02:32:20.415Z,6.00
2023-04-07T02:33:23.088Z,6.00
2023-04-07T02:34:24.797Z,4.00
2023-04-07T02:35:27.421Z,6.00
2023-04-07T02:36:29.112Z,7.00
2023-04-07T02:37:31.813Z,6.25
2023-04-07T02:38:33.459Z,6.00
2023-04-07T02:39:36.248Z,6.00
2023-04-07T02:40:37.946Z,6.00
2023-04-07T02:41:40.628Z,7.00
2023-04-07T02:42:42.298Z,6.75
2023-04-07T02:43:44.903Z,6.00
2023-04-07T02:44:46.578Z,6.25
2023-04-07T02:45:49.252Z,6.00
2023-04-07T02:46:50.902Z,7.00
2023-04-07T02:47:55.014Z,7.00
2023-04-07T02:48:56.707Z,6.50
2023-04-07T02:49:59.354Z,6.50
2023-04-07T02:51:01.196Z,6.00
2023-04-07T02:52:03.811Z,7.00
2023-04-07T02:53:05.468Z,6.75
2023-04-07T02:54:08.125Z,6.75
2023-04-07T02:55:10.260Z,7.00
2023-04-07T02:56:12.898Z,6.75
2023-04-07T02:57:14.526Z,6.25
2023-04-07T02:58:17.146Z,6.50
2023-04-07T02:59:18.812Z,6.00
2023-04-07T03:00:21.738Z,6.25
2023-04-07T03:01:23.405Z,9.00
2023-04-07T03:02:26.271Z,6.00
2023-04-07T03:03:29.521Z,6.00
2023-04-07T03:04:32.437Z,6.75
2023-04-07T03:05:34.105Z,6.00
2023-04-07T03:06:36.714Z,6.25
2023-04-07T03:07:38.401Z,7.00
2023-04-07T03:08:42.162Z,7.00
2023-04-07T03:09:43.827Z,7.00
2023-04-07T03:10:46.505Z,6.00
2023-04-07T03:11:48.151Z,8.00
2023-04-07T03:12:50.914Z,7.00
2023-04-07T03:13:52.914Z,7.00
2023-04-07T03:14:55.689Z,8.50
2023-04-07T03:15:57.608Z,6.00
2023-04-07T03:17:00.423Z,6.25
2023-04-07T03:18:02.279Z,7.00
2023-04-07T03:19:06.289Z,6.00
2023-04-07T03:20:08.858Z,6.75
2023-04-07T03:21:11.590Z,6.00
2023-04-07T03:22:13.220Z,7.00
2023-04-07T03:23:16.002Z,5.50
2023-04-07T03:24:18.297Z,7.00
2023-04-07T03:25:21.524Z,6.50
2023-04-07T03:26:23.233Z,7.00
2023-04-07T03:27:25.825Z,7.00
2023-04-07T03:28:27.466Z,7.00
2023-04-07T03:29:30.135Z,7.00
2023-04-07T03:30:31.825Z,6.00
2023-04-07T03:31:34.490Z,7.00
2023-04-07T03:32:36.173Z,7.00
2023-04-07T03:33:38.846Z,9.00
2023-04-07T03:34:41.845Z,7.00
2023-04-07T03:35:44.435Z,6.00
2023-04-07T03:36:47.098Z,6.25
2023-04-07T03:37:48.806Z,6.75
2023-04-07T03:38:51.413Z,6.25
2023-04-07T03:39:53.070Z,6.75
2023-04-07T03:40:55.776Z,6.00
2023-04-07T03:41:57.879Z,5.50
2023-04-07T03:43:00.624Z,7.00
2023-04-07T03:44:02.277Z,7.00
2023-04-07T03:45:05.463Z,6.00
2023-04-07T03:46:07.193Z,7.00
2023-04-07T03:47:09.905Z,6.00
2023-04-07T03:48:12.234Z,7.00
2023-04-07T03:49:14.989Z,6.25
2023-04-07T03:50:18.072Z,6.50
2023-04-07T03:51:20.763Z,6.00
2023-04-07T03:52:22.448Z,6.00
2023-04-07T03:53:25.610Z,6.00
2023-04-07T03:54:27.269Z,6.00
2023-04-07T03:55:29.914Z,6.00
2023-04-07T03:56:31.848Z,5.50
2023-04-07T03:57:34.484Z,6.00
2023-04-07T03:58:36.136Z,4.00
2023-04-07T03:59:38.760Z,6.00
2023-04-07T04:00:40.671Z,5.50
2023-04-07T04:01:43.289Z,6.00
2023-04-07T04:02:45.088Z,6.75
2023-04-07T04:03:48.021Z,4.00
2023-04-07T04:04:49.868Z,6.00
2023-04-07T04:05:53.917Z,6.00
2023-04-07T04:06:55.891Z,6.00
2023-04-07T04:07:58.596Z,5.50
2023-04-07T04:09:00.287Z,4.50
2023-04-07T04:10:03.053Z,6.50
2023-04-07T04:11:04.855Z,6.00
2023-04-07T04:12:07.780Z,6.00
2023-04-07T04:13:09.586Z,5.50
2023-04-07T04:14:12.378Z,5.00
2023-04-07T04:15:14.230Z,4.00
2023-04-07T04:16:16.946Z,7.00
2023-04-07T04:17:18.617Z,6.00
2023-04-07T04:18:21.390Z,6.00
2023-04-07T04:19:23.041Z,6.00
2023-04-07T04:20:25.659Z,4.50
2023-04-07T04:21:28.649Z,4.00
2023-04-07T04:22:31.248Z,7.00
2023-04-07T04:23:32.950Z,6.00
2023-04-07T04:24:35.696Z,6.00
2023-04-07T04:25:39.495Z,6.00
2023-04-07T04:26:42.427Z,5.50
2023-04-07T04:27:44.074Z,6.00
2023-04-07T04:28:46.733Z,6.00
2023-04-07T04:29:48.887Z,6.25
2023-04-07T04:30:51.488Z,6.50
2023-04-07T04:31:53.143Z,5.00
2023-04-07T04:32:55.959Z,6.00
2023-04-07T04:33:57.702Z,5.00
2023-04-07T04:35:00.388Z,4.00
2023-04-07T04:36:02.060Z,6.00
2023-04-07T04:37:06.416Z,4.50
2023-04-07T04:38:08.091Z,5.00
2023-04-07T04:39:11.062Z,4.00
2023-04-07T04:40:14.503Z,6.50
2023-04-07T04:41:17.147Z,6.00
2023-04-07T04:42:18.781Z,6.50
2023-04-07T04:43:21.525Z,4.50
2023-04-07T04:44:23.203Z,6.00
2023-04-07T04:45:25.972Z,6.00
2023-04-07T04:46:27.649Z,6.00
2023-04-07T04:47:30.572Z,4.00
2023-04-07T04:48:33.214Z,6.00
2023-04-07T04:49:34.882Z,6.00
2023-04-07T04:50:37.499Z,6.00
2023-04-07T04:51:39.134Z,5.50
2023-04-07T04:52:43.726Z,6.00
2023-04-07T04:53:45.453Z,5.00
2023-04-07T04:54:48.260Z,8.00
2023-04-07T04:55:53.742Z,7.00
2023-04-07T04:56:57.236Z,7.00
2023-04-07T04:57:58.917Z,10.00
2023-04-07T04:59:01.526Z,6.00
2023-04-07T05:00:04.413Z,6.50
2023-04-07T05:01:07.109Z,6.50
2023-04-07T05:02:08.889Z,6.25
2023-04-07T05:03:11.806Z,6.00
2023-04-07T05:04:13.842Z,7.00
2023-04-07T05:05:16.946Z,6.00
2023-04-07T05:06:18.657Z,6.00
2023-04-07T05:07:21.302Z,6.00
2023-04-07T05:08:24.297Z,6.50
2023-04-07T05:09:27.333Z,6.00
2023-04-07T05:10:30.117Z,6.75
2023-04-07T05:11:31.762Z,6.00
2023-04-07T05:12:34.364Z,6.00
2023-04-07T05:13:36.316Z,6.00
2023-04-07T05:14:38.950Z,6.00
2023-04-07T05:15:41.204Z,4.00
2023-04-07T05:16:44.063Z,6.00
2023-04-07T05:17:50.325Z,6.00
2023-04-07T05:18:53.107Z,6.00
2023-04-07T05:19:54.825Z,6.00
2023-04-07T05:20:57.476Z,5.00
2023-04-07T05:21:59.164Z,6.00
2023-04-07T05:23:01.882Z,7.50
2023-04-07T05:24:05.471Z,6.00
2023-04-07T05:25:09.577Z,6.00
2023-04-07T05:26:11.365Z,7.00
2023-04-07T05:27:13.962Z,6.00
2023-04-07T05:28:15.604Z,6.00
2023-04-07T05:29:18.229Z,4.00
2023-04-07T05:30:19.944Z,6.00
2023-04-07T05:31:22.607Z,6.50
2023-04-07T05:32:24.287Z,6.25
2023-04-07T05:33:27.826Z,6.00
2023-04-07T05:34:29.471Z,6.00
2023-04-07T05:35:32.237Z,6.00
2023-04-07T05:36:35.706Z,6.00
2023-04-07T05:37:38.351Z,7.00
2023-04-07T05:38:39.993Z,7.00
2023-04-07T05:39:43.967Z,7.00
2023-04-07T05:40:47.138Z,6.75
2023-04-07T05:41:49.761Z,6.75
2023-04-07T05:42:51.457Z,4.00
2023-04-07T05:43:54.257Z,6.00
2023-04-07T05:44:56.265Z,6.00
2023-04-07T05:45:59.297Z,6.25
2023-04-07T05:47:01.146Z,6.75
2023-04-07T05:48:03.839Z,6.75
2023-04-07T05:49:19.000Z,6.25
2023-04-07T05:50:22.954Z,6.75
2023-04-07T05:51:24.626Z,8.00
2023-04-07T05:52:27.260Z,7.00
2023-04-07T05:53:28.901Z,6.50
2023-04-07T05:54:31.647Z,8.00
2023-04-07T05:55:34.668Z,10.00
2023-04-07T05:56:37.327Z,9.50
2023-04-07T05:57:38.975Z,13.00
2023-04-07T05:58:41.592Z,9.75
2023-04-07T05:59:43.230Z,9.25
2023-04-07T06:00:45.859Z,11.50
2023-04-07T06:01:47.789Z,10.50
2023-04-07T06:02:50.728Z,15.25
2023-04-07T06:03:52.657Z,10.50
2023-04-07T06:04:55.396Z,10.00
2023-04-07T06:05:58.433Z,7.00
2023-04-07T06:07:01.322Z,7.50
2023-04-07T06:08:02.961Z,7.00
2023-04-07T06:09:07.001Z,7.00
2023-04-07T06:10:09.953Z,6.25
2023-04-07T06:11:13.956Z,10.00
2023-04-07T06:12:16.970Z,9.00
2023-04-07T06:13:19.592Z,9.00
2023-04-07T06:14:21.391Z,9.00
2023-04-07T06:15:24.026Z,10.00
2023-04-07T06:16:25.831Z,10.00
2023-04-07T06:17:28.993Z,12.00
2023-04-07T06:18:30.765Z,9.00
2023-04-07T06:19:33.579Z,6.50
2023-04-07T06:20:35.683Z,8.00
2023-04-07T06:21:39.800Z,8.50
2023-04-07T06:22:42.805Z,6.50
2023-04-07T06:23:44.433Z,7.00
2023-04-07T06:24:47.133Z,6.25
2023-04-07T06:25:51.863Z,6.75
2023-04-07T06:26:56.206Z,7.00
2023-04-07T06:27:58.922Z,7.00
2023-04-07T06:29:00.831Z,7.00
2023-04-07T06:30:03.579Z,7.00
2023-04-07T06:31:05.672Z,7.00
2023-04-07T06:32:08.379Z,5.75
2023-04-07T06:33:10.052Z,7.00
2023-04-07T06:34:12.670Z,5.00
2023-04-07T06:35:14.433Z,7.00
2023-04-07T06:36:17.364Z,6.00
2023-04-07T06:37:19.038Z,7.00
2023-04-07T06:38:21.761Z,6.00
2023-04-07T06:39:23.394Z,6.50
2023-04-07T06:40:26.025Z,6.00
2023-04-07T06:41:27.669Z,6.00
2023-04-07T06:42:31.732Z,5.75
2023-04-07T06:43:33.412Z,6.00
2023-04-07T06:44:36.057Z,4.75
2023-04-07T06:45:37.745Z,4.00
2023-04-07T06:46:41.693Z,5.75
2023-04-07T06:47:44.469Z,7.50
2023-04-07T06:48:46.756Z,4.00
2023-04-07T06:49:49.371Z,6.75
2023-04-07T06:50:51.988Z,4.50
2023-04-07T06:51:53.624Z,6.00
2023-04-07T06:52:56.217Z,6.00
2023-04-07T06:53:57.951Z,8.00
2023-04-07T06:55:00.787Z,10.00
2023-04-07T06:56:06.993Z,10.50
2023-04-07T06:57:11.938Z,7.00
2023-04-07T06:58:16.121Z,10.00
2023-04-07T06:59:18.814Z,10.00
2023-04-07T07:00:20.677Z,9.50
2023-04-07T07:01:23.329Z,9.75
2023-04-07T07:02:25.238Z,13.00
2023-04-07T07:03:28.186Z,7.00
2023-04-07T07:04:30.102Z,8.00
2023-04-07T07:05:33.168Z,5.75
2023-04-07T07:06:35.784Z,4.00
2023-04-07T07:07:37.454Z,6.00
2023-04-07T07:08:40.323Z,4.50
2023-04-07T07:09:41.999Z,7.00
2023-04-07T07:10:44.619Z,8.00
2023-04-07T07:11:47.617Z,4.25
2023-04-07T07:12:50.355Z,5.00
2023-04-07T07:13:53.366Z,6.00
2023-04-07T07:14:56.150Z,5.75
2023-04-07T07:15:57.860Z,4.00
2023-04-07T07:17:00.501Z,5.75
2023-04-07T07:18:02.250Z,6.25
2023-04-07T07:19:05.280Z,7.00
2023-04-07T07:20:08.214Z,5.50
2023-04-07T07:21:10.865Z,5.00
2023-04-07T07:22:12.518Z,5.50
2023-04-07T07:23:15.131Z,4.25
2023-04-07T07:24:17.753Z,20.50
2023-04-07T07:25:19.471Z,9.00
2023-04-07T07:26:22.073Z,7.00
2023-04-07T07:27:23.743Z,5.75
2023-04-07T07:28:26.488Z,5.75
2023-04-07T07:29:29.532Z,5.75
2023-04-07T07:30:32.221Z,7.00
2023-04-07T07:31:35.039Z,6.75
2023-04-07T07:32:36.702Z,7.00
2023-04-07T07:33:40.527Z,6.00
2023-04-07T07:34:43.173Z,6.50
2023-04-07T07:35:44.898Z,5.75
2023-04-07T07:36:47.552Z,6.75
2023-04-07T07:37:50.326Z,3.00
2023-04-07T07:38:52.994Z,4.00
2023-04-07T07:39:56.250Z,4.00
2023-04-07T07:40:58.945Z,4.00
2023-04-07T07:42:01.571Z,5.00
2023-04-07T07:43:03.441Z,5.00
2023-04-07T07:44:06.129Z,5.00
2023-04-07T07:45:09.845Z,6.00
2023-04-07T07:46:12.612Z,5.75
2023-04-07T07:47:15.558Z,6.25
2023-04-07T07:48:18.224Z,7.00
2023-04-07T07:49:21.389Z,7.00
2023-04-07T07:50:23.054Z,8.50
2023-04-07T07:51:25.732Z,7.00
2023-04-07T07:52:27.435Z,7.00
2023-04-07T07:53:30.060Z,7.00
2023-04-07T07:54:31.709Z,10.50
2023-04-07T07:55:34.325Z,5.00
2023-04-07T07:56:36.043Z,4.00
2023-04-07T07:57:38.636Z,4.50
2023-04-07T07:58:40.481Z,6.50
2023-04-07T07:59:43.155Z,6.00
2023-04-07T08:00:47.150Z,5.75
2023-04-07T08:01:48.838Z,5.75
2023-04-07T08:02:51.588Z,5.75
2023-04-07T08:03:54.711Z,5.00
2023-04-07T08:04:57.926Z,7.00
2023-04-07T08:06:01.012Z,7.00
2023-04-07T08:07:02.742Z,6.75
2023-04-07T08:08:05.397Z,6.25
2023-04-07T08:09:08.027Z,4.00
2023-04-07T08:10:09.777Z,4.25
2023-04-07T08:11:12.398Z,3.00
2023-04-07T08:12:15.109Z,5.50
2023-04-07T08:13:16.870Z,2.75
2023-04-07T08:14:19.486Z,4.00
2023-04-07T08:15:21.277Z,4.00
2023-04-07T08:16:26.838Z,3.50
2023-04-07T08:17:28.662Z,4.50
2023-04-07T08:18:31.329Z,3.00
2023-04-07T08:19:33.042Z,3.25
2023-04-07T08:20:36.141Z,2.75
2023-04-07T08:21:37.812Z,2.75
2023-04-07T08:22:40.650Z,3.25
2023-04-07T08:23:42.341Z,2.75
2023-04-07T08:24:44.973Z,4.00
2023-04-07T08:25:46.645Z,3.25
2023-04-07T08:26:49.299Z,2.75
2023-04-07T08:27:51.065Z,3.75
2023-04-07T08:28:53.890Z,4.00
2023-04-07T08:29:59.096Z,2.75
2023-04-07T08:31:01.860Z,1.50
2023-04-07T08:32:05.193Z,2.25
2023-04-07T08:33:08.454Z,2.75
2023-04-07T08:34:10.150Z,2.75
2023-04-07T08:35:12.818Z,3.25
2023-04-07T08:36:15.519Z,2.75
2023-04-07T08:37:17.211Z,2.75
2023-04-07T08:38:20.035Z,4.00
2023-04-07T08:39:22.837Z,3.00
2023-04-07T08:40:25.764Z,1.75
2023-04-07T08:41:29.161Z,2.75
2023-04-07T08:42:32.293Z,3.00
2023-04-07T08:43:35.405Z,2.75
2023-04-07T08:44:37.204Z,2.75
2023-04-07T08:45:42.088Z,4.00
2023-04-07T08:46:43.896Z,2.75
2023-04-07T08:47:48.137Z,4.00
2023-04-07T08:48:51.594Z,4.00
2023-04-07T08:49:54.392Z,2.75
2023-04-07T08:50:56.026Z,2.75
2023-04-07T08:51:58.650Z,2.75
2023-04-07T08:53:01.029Z,2.75
2023-04-07T08:54:06.875Z,3.50
2023-04-07T08:55:09.430Z,2.75
2023-04-07T08:56:12.856Z,1.25
2023-04-07T08:57:14.659Z,1.00
2023-04-07T08:58:17.341Z,1.00
2023-04-07T08:59:25.297Z,1.00
2023-04-07T09:00:27.058Z,1.75
2023-04-07T09:01:29.785Z,1.25
2023-04-07T09:02:33.779Z,1.00
2023-04-07T09:03:37.134Z,1.00
2023-04-07T09:04:40.008Z,2.50
2023-04-07T09:05:41.691Z,1.00
2023-04-07T09:06:44.717Z,1.25
2023-04-07T09:07:46.440Z,1.75
2023-04-07T09:08:49.062Z,1.25
2023-04-07T09:09:51.052Z,2.75
2023-04-07T09:10:53.671Z,2.75
2023-04-07T09:11:55.433Z,1.00
2023-04-07T09:12:59.347Z,2.50
2023-04-07T09:14:01.976Z,1.00
2023-04-07T09:15:05.315Z,1.00
2023-04-07T09:16:07.581Z,1.25
2023-04-07T09:17:10.208Z,1.00
2023-04-07T09:18:11.861Z,1.00
2023-04-07T09:19:15.855Z,2.75
2023-04-07T09:20:17.716Z,1.50
2023-04-07T09:21:20.386Z,1.50
2023-04-07T09:22:35.845Z,2.75
2023-04-07T09:23:39.384Z,2.00
2023-04-07T09:24:42.680Z,2.75
2023-04-07T09:25:44.364Z,2.00
2023-04-07T09:26:47.123Z,1.00
2023-04-07T09:28:00.082Z,1.50
2023-04-07T09:29:03.106Z,1.00
2023-04-07T09:30:12.869Z,1.00
2023-04-07T09:31:14.631Z,1.00
2023-04-07T09:32:36.033Z,1.00
2023-04-07T09:33:37.679Z,1.00
2023-04-07T09:34:42.027Z,3.00
2023-04-07T09:35:52.291Z,1.00
2023-04-07T09:36:54.946Z,3.00
2023-04-07T09:38:04.735Z,1.00
2023-04-07T09:39:08.503Z,1.00
2023-04-07T09:40:11.683Z,1.00
2023-04-07T09:41:13.944Z,1.50
2023-04-07T09:42:16.583Z,2.75
2023-04-07T09:43:19.142Z,1.00
2023-04-07T09:44:21.821Z,2.75
2023-04-07T09:45:34.096Z,2.00
2023-04-07T09:46:38.366Z,1.00
2023-04-07T09:47:40.264Z,1.50
2023-04-07T09:48:43.673Z,1.00
2023-04-07T09:49:53.533Z,2.75
2023-04-07T09:50:56.205Z,2.75
2023-04-07T09:52:00.734Z,2.00
2023-04-07T09:53:03.062Z,1.00
2023-04-07T09:54:05.785Z,1.00
2023-04-07T09:55:07.761Z,1.00
2023-04-07T09:56:10.774Z,2.50
2023-04-07T09:57:13.958Z,1.00
2023-04-07T09:58:16.772Z,2.75
2023-04-07T09:59:19.569Z,2.75
2023-04-07T10:00:21.506Z,2.75
2023-04-07T10:01:24.161Z,1.50
2023-04-07T10:02:26.904Z,1.00
2023-04-07T10:03:29.784Z,1.00
2023-04-07T10:04:32.582Z,1.00
2023-04-07T10:05:37.159Z,1.00
2023-04-07T10:06:40.259Z,1.00
2023-04-07T10:07:42.841Z,2.00
2023-04-07T10:08:45.997Z,1.00
2023-04-07T10:09:47.863Z,2.50
2023-04-07T10:10:51.315Z,1.00
2023-04-07T10:11:53.716Z,2.00
2023-04-07T10:12:57.238Z,1.00
2023-04-07T10:13:59.833Z,2.75
2023-04-07T10:15:01.567Z,2.75
2023-04-07T10:16:04.976Z,1.00
2023-04-07T10:17:06.676Z,2.75
2023-04-07T10:18:09.843Z,2.00
2023-04-07T10:19:11.765Z,2.00
2023-04-07T10:20:14.770Z,1.75
2023-04-07T10:21:18.788Z,1.25
2023-04-07T10:22:20.488Z,2.00
2023-04-07T10:23:25.765Z,1.00
2023-04-07T10:24:39.140Z,2.00
2023-04-07T10:25:40.897Z,2.50
2023-04-07T10:26:43.516Z,2.00
2023-04-07T10:27:50.399Z,2.00
2023-04-07T10:29:00.124Z,2.75
2023-04-07T10:30:01.821Z,2.75
2023-04-07T10:31:04.577Z,1.00
2023-04-07T10:32:06.733Z,1.50
2023-04-07T10:33:09.816Z,1.75
2023-04-07T10:34:11.571Z,1.50
2023-04-07T10:35:14.187Z,1.00
2023-04-07T10:36:17.730Z,2.00
2023-04-07T10:37:22.110Z,2.00
2023-04-07T10:38:24.793Z,2.00
2023-04-07T10:39:26.640Z,2.75
2023-04-07T10:40:30.032Z,2.00
2023-04-07T10:41:32.597Z,1.00
2023-04-07T10:42:48.000Z,1.00
2023-04-07T10:43:50.916Z,1.00
2023-04-07T10:44:53.174Z,2.00
2023-04-07T10:45:59.347Z,2.50
2023-04-07T10:47:04.605Z,1.00
2023-04-07T10:48:10.905Z,1.50
2023-04-07T10:49:16.281Z,1.00
2023-04-07T10:50:20.167Z,2.00
2023-04-07T10:51:24.194Z,1.50
2023-04-07T10:52:25.940Z,2.00
2023-04-07T10:53:28.977Z,1.00
2023-04-07T10:54:31.942Z,1.00
2023-04-07T10:55:34.984Z,2.00
2023-04-07T10:57:10.482Z,1.00
2023-04-07T10:58:20.439Z,1.00
2023-04-07T10:59:27.331Z,1.00
2023-04-07T11:00:30.090Z,1.00
2023-04-07T11:01:34.603Z,2.75
2023-04-07T11:02:38.499Z,1.00
2023-04-07T11:03:42.086Z,1.00
2023-04-07T11:04:44.787Z,1.00
2023-04-07T11:05:47.551Z,1.00
2023-04-07T11:06:51.804Z,1.00
2023-04-07T11:07:59.251Z,1.25
2023-04-07T11:09:01.873Z,1.00
2023-04-07T11:10:10.692Z,0.25
2023-04-07T11:11:15.397Z,1.00
2023-04-07T11:12:23.106Z,1.50
2023-04-07T11:13:26.006Z,0.50
2023-04-07T11:14:28.119Z,1.00
2023-04-07T11:15:30.841Z,1.00
2023-04-07T11:16:37.258Z,1.00
2023-04-07T11:17:39.911Z,1.00
2023-04-07T11:18:41.798Z,1.00
2023-04-07T11:19:52.159Z,2.75
2023-04-07T11:20:55.647Z,1.00
2023-04-07T11:22:28.632Z,1.00
2023-04-07T11:23:38.485Z,1.00
2023-04-07T11:24:40.247Z,3.00
2023-04-07T11:25:43.630Z,1.75
2023-04-07T11:26:46.915Z,1.50
2023-04-07T11:27:49.604Z,1.00
2023-04-07T11:28:53.409Z,1.00
2023-04-07T11:29:55.289Z,1.00
2023-04-07T11:30:58.394Z,1.00
2023-04-07T11:32:02.633Z,1.00
2023-04-07T11:33:04.328Z,1.00
2023-04-07T11:34:07.315Z,1.25
2023-04-07T11:35:09.735Z,2.00
2023-04-07T11:36:12.374Z,1.00
2023-04-07T11:37:22.742Z,1.00
2023-04-07T11:38:26.069Z,2.75
2023-04-07T11:39:31.173Z,2.75
2023-04-07T11:40:34.488Z,2.75
2023-04-07T11:41:46.664Z,2.00
2023-04-07T11:42:48.358Z,2.75
2023-04-07T11:43:51.195Z,2.00
2023-04-07T11:44:52.862Z,4.00
2023-04-07T11:46:05.694Z,1.75
2023-04-07T11:47:08.352Z,2.75
2023-04-07T11:48:29.611Z,4.00
2023-04-07T11:49:32.629Z,6.00
2023-04-07T11:50:41.133Z,4.00
2023-04-07T11:51:44.575Z,4.00
2023-04-07T11:52:48.314Z,3.00
2023-04-07T11:53:55.737Z,4.75
2023-04-07T11:54:59.297Z,5.00
2023-04-07T11:56:06.522Z,4.25
2023-04-07T11:57:12.012Z,5.00
2023-04-07T11:58:14.673Z,3.75
2023-04-07T11:59:21.318Z,4.00
2023-04-07T12:00:24.325Z,2.00
2023-04-07T12:01:27.084Z,1.00
2023-04-07T12:02:32.266Z,1.00
2023-04-07T12:03:35.701Z,1.00
2023-04-07T12:04:40.759Z,1.00
2023-04-07T12:05:45.573Z,1.00
2023-04-07T12:06:49.153Z,1.00
2023-04-07T12:07:55.527Z,2.00
2023-04-07T12:08:58.150Z,2.00
2023-04-07T12:10:19.111Z,2.00
2023-04-07T12:11:21.742Z,1.00
2023-04-07T12:12:27.081Z,1.00
2023-04-07T12:13:28.721Z,1.00
2023-04-07T12:14:31.599Z,1.00
2023-04-07T12:15:33.262Z,1.00
2023-04-07T12:16:39.021Z,1.00
2023-04-07T12:17:45.719Z,2.00
2023-04-07T12:18:48.341Z,1.00
2023-04-07T12:19:50.030Z,1.00
2023-04-07T12:20:52.659Z,2.00
2023-04-07T12:21:54.321Z,2.00
2023-04-07T12:22:59.916Z,1.00
2023-04-07T12:24:02.582Z,2.00
2023-04-07T12:25:04.777Z,1.00
2023-04-07T12:26:07.652Z,0.25
2023-04-07T12:27:10.989Z,1.00
2023-04-07T12:28:12.647Z,1.00
2023-04-07T12:29:15.361Z,0.75
2023-04-07T12:30:17.326Z,1.00
2023-04-07T12:31:20.530Z,0.00
2023-04-07T12:32:22.249Z,0.25
2023-04-07T12:33:24.890Z,1.00
2023-04-07T12:34:27.825Z,0.00
2023-04-07T12:35:29.558Z,0.00
2023-04-07T12:36:32.210Z,0.00
2023-04-07T12:37:33.864Z,0.00
2023-04-07T12:38:37.882Z,0.00
2023-04-07T12:39:39.517Z,0.00
2023-04-07T12:40:42.182Z,0.00
2023-04-07T12:41:45.712Z,0.00
2023-04-07T12:42:48.039Z,0.00
2023-04-07T12:43:50.858Z,0.00
2023-04-07T12:44:53.041Z,0.00
2023-04-07T12:45:55.737Z,0.00
2023-04-07T12:46:57.419Z,0.00
2023-04-07T12:48:00.430Z,0.00
2023-04-07T12:49:03.397Z,0.00
2023-04-07T12:50:06.028Z,0.00
2023-04-07T12:51:08.776Z,0.00
2023-04-07T12:52:10.423Z,0.00
2023-04-07T12:53:13.295Z,0.00
2023-04-07T12:54:16.307Z,1.75
2023-04-07T12:55:18.948Z,0.00
2023-04-07T12:56:22.416Z,0.00
2023-04-07T12:57:25.204Z,0.00
2023-04-07T12:58:27.084Z,0.00
2023-04-07T12:59:30.317Z,0.00
2023-04-07T13:00:31.956Z,0.00
2023-04-07T13:01:35.415Z,0.00
2023-04-07T13:02:37.402Z,0.00
2023-04-07T13:03:40.340Z,0.00
2023-04-07T13:04:46.423Z,0.00
2023-04-07T13:05:49.313Z,0.00
2023-04-07T13:06:51.245Z,0.00
2023-04-07T13:07:53.853Z,1.00
2023-04-07T13:08:56.424Z,0.00
2023-04-07T13:10:00.405Z,1.00
2023-04-07T13:11:02.222Z,1.00
2023-04-07T13:12:04.874Z,1.00
2023-04-07T13:13:06.518Z,0.00
2023-04-07T13:14:09.547Z,0.00
2023-04-07T13:15:11.575Z,1.00
2023-04-07T13:16:14.211Z,0.00
2023-04-07T13:17:17.312Z,0.75
2023-04-07T13:18:19.993Z,0.00
2023-04-07T13:19:21.842Z,1.00
2023-04-07T13:20:27.913Z,0.00
2023-04-07T13:21:45.530Z,1.00
2023-04-07T13:22:59.223Z,1.00
2023-04-07T13:24:08.445Z,1.00
2023-04-07T13:25:12.430Z,1.00
2023-04-07T13:26:14.134Z,0.50
2023-04-07T13:27:16.745Z,1.00
2023-04-07T13:28:20.998Z,1.00
2023-04-07T13:29:22.636Z,1.00
2023-04-07T13:30:25.309Z,1.00
2023-04-07T13:31:28.405Z,1.00
2023-04-07T13:32:31.367Z,1.00
2023-04-07T13:33:33.982Z,1.75
2023-04-07T13:34:36.446Z,1.00
2023-04-07T13:35:39.114Z,1.00
2023-04-07T13:36:41.020Z,1.00
2023-04-07T13:37:44.404Z,1.00
2023-04-07T13:38:46.033Z,1.00
2023-04-07T13:39:48.660Z,1.00
2023-04-07T13:40:51.701Z,1.00
2023-04-07T13:41:54.299Z,1.00
2023-04-07T13:42:57.311Z,2.00
2023-04-07T13:43:59.015Z,1.50
2023-04-07T13:45:01.741Z,1.75
2023-04-07T13:46:04.170Z,1.50
2023-04-07T13:47:08.855Z,2.00
2023-04-07T13:48:10.642Z,2.00
2023-04-07T13:49:14.895Z,2.00
2023-04-07T13:50:17.496Z,1.00
2023-04-07T13:51:19.142Z,1.00
2023-04-07T13:52:21.755Z,0.75
2023-04-07T13:53:24.841Z,1.00
2023-04-07T13:54:27.455Z,1.00
2023-04-07T13:55:29.317Z,1.00
2023-04-07T13:56:35.424Z,0.50
2023-04-07T13:57:37.072Z,0.50
2023-04-07T13:58:39.701Z,1.00
2023-04-07T13:59:41.573Z,1.00
2023-04-07T14:00:44.185Z,1.00
2023-04-07T14:01:46.912Z,1.00